Share

Dillon, SC (29536)

Marion County (KMAO) Elev 92 ft | 34.18 °N, 79.33 °W | Change Station

Current weather conditions updated 20 minutes ago

Rain
Rain
54 °F
Feels Like 54 °F
N
9
Wind Variable Wind from NE
Sunrise 6:42 AM
Sunset 7:51 PM
Moon Waning Gibbous

Tomorrow is forecast to be Cooler than today. Cloudy, periods of rain.

Pressure 30.20 in
Visibility 4.0 miles
Clouds Overcast 3800 ft
Dew Point 54 °F
Humidity 100%
Rainfall 0.45 in
Snow Depth Not available.
UV 0 out of 16
Pollen 6.00 out of 12
Ozone Good
PM2.5 Good
Flu Activity Local Activity
METAR KMAO 190015Z AUTO 05008KT 4SM RA OVC038 12/12 A3020 RMK AO2 P0006

More Conditions Fewer Conditions

Pressure 30.20 in
Visibility 4.0 miles
Clouds Overcast 3800 ft
Dew Point 54 °F
Humidity 100%
Rainfall 0.45 in
Snow Depth Not available.
UV 0 out of 16
Pollen 6.00 out of 12
Ozone Good
PM2.5 Good
Flu Activity Local Activity
METAR KMAO 190015Z AUTO 05008KT 4SM RA OVC038 12/12 A3020 RMK AO2 P0006

More Conditions Fewer Conditions

10-Day Weather Forecast

Almanac

Astronomy

Apr. 18, 2014 Rise Set
Actual Time 6:42 AM EDT 7:51 PM EDT
Civil Twilight 6:16 AM EDT 8:17 PM EDT
Nautical Twilight 5:45 AM EDT 8:48 PM EDT
Astronomical Twilight 5:13 AM EDT 9:20 PM EDT
Moon 11:29 PM EDT (4/18) 9:08 AM EDT (4/18)
Length of Visible Light 14h 01m
Length of Day
13h 09m
Tomorrow will be 2m 1s longer.
Waning Gibbous, 84% of the Moon is Illuminated
Today
Waning Gibbous
Apr 22
Last Quarter
Apr 29
New
May 6
First Quarter
May 14
Full

Today's Extremes

State Highs State Lows

Community

  • Cloudy spring view
    Cloudy spring view
  • Old barn
    Old barn
  • What's for Lunch?
    What's for Lunch?
  • SUNRISE THROUGH THE TREES.
    SUNRISE THROUGH THE TREES.
  • Dog Wood Blossoms
    Dog Wood Blossoms

WunderPhotos

Upload Photos

1,702,551 photos uploaded!

WunderBlogs® & News

Nearby

Air Quality

  Air Quality AQ Index Pollutant
Yesterday Good
OZONE
Yesterday Good
PM2.5
Current Good
OZONE
Current Good
PM2.5
Friday Good
OZONE
Saturday Good
OZONE

Snow Depth

Station Depth Elevation
No new snow has been reported.

Coastal Water Temperatures

Place Temperature
No Stations Reporting

Earthquake Activity

City Distance Mag. Time & Date
No recent earthquake activity has been reported nearby.
Minimum magnitude displayed is 2.5.

Nearby Weather Stations

Station Location Temp. Dew Point Humidity Wind Precip. Elev Updated Type
RAWS MARION 01 SC, Marion, SC 57 °F 54 °F 90% ENE  at  7 mph 0.03 in / hr 92 ft 7:07 PM EDT MADIS
Cottingham Creek, Bennettsville, SC 55.4 °F 51 °F 86% North  at  1.0 mph 0.06 in / hr 143 ft 8:34 PM EDT Rapid Fire
RL Fogle, Nichols, SC 55.8 °F 54 °F 92% NE  at  3.0 mph 0.15 in / hr 75 ft 8:35 PM EDT Rapid Fire
Mechanicsville, Darlington, SC 54.1 °F 53 °F 95% NNE  at  2.0 mph 0.17 in / hr 144 ft 8:35 PM EDT Rapid Fire

Show More Stations Show Fewer Stations

What do you think?

We're not finished. Please let us know what you like, what you don't like, and what you are still missing.